sensor_id;sensor_type;location;lat;lon;timestamp;temperature;humidity
71304;DHT22;59091;47.446;19.148;2023-05-07T00:01:55;17.70;74.54
71304;DHT22;59091;47.446;19.148;2023-05-07T00:04:21;17.70;74.58
71304;DHT22;59091;47.446;19.148;2023-05-07T00:06:46;17.69;74.81
71304;DHT22;59091;47.446;19.148;2023-05-07T00:09:12;17.66;74.92
71304;DHT22;59091;47.446;19.148;2023-05-07T00:11:37;17.66;74.82
71304;DHT22;59091;47.446;19.148;2023-05-07T00:14:03;17.66;74.78
71304;DHT22;59091;47.446;19.148;2023-05-07T00:16:28;17.64;74.84
71304;DHT22;59091;47.446;19.148;2023-05-07T00:18:54;17.63;75.17
71304;DHT22;59091;47.446;19.148;2023-05-07T00:21:19;17.63;75.11
71304;DHT22;59091;47.446;19.148;2023-05-07T00:23:46;17.63;75.18
71304;DHT22;59091;47.446;19.148;2023-05-07T00:26:12;17.63;75.09
71304;DHT22;59091;47.446;19.148;2023-05-07T00:28:37;17.62;74.81
71304;DHT22;59091;47.446;19.148;2023-05-07T00:31:03;17.60;74.90
71304;DHT22;59091;47.446;19.148;2023-05-07T00:33:28;17.59;74.96
71304;DHT22;59091;47.446;19.148;2023-05-07T00:35:54;17.57;74.85
71304;DHT22;59091;47.446;19.148;2023-05-07T00:38:19;17.56;74.68
71304;DHT22;59091;47.446;19.148;2023-05-07T00:40:45;17.56;74.81
71304;DHT22;59091;47.446;19.148;2023-05-07T00:43:11;17.53;75.00
71304;DHT22;59091;47.446;19.148;2023-05-07T00:45:38;17.50;74.81
71304;DHT22;59091;47.446;19.148;2023-05-07T00:48:03;17.45;75.03
71304;DHT22;59091;47.446;19.148;2023-05-07T00:50:29;17.42;75.12
71304;DHT22;59091;47.446;19.148;2023-05-07T00:52:56;17.39;74.89
71304;DHT22;59091;47.446;19.148;2023-05-07T00:55:23;17.33;75.17
71304;DHT22;59091;47.446;19.148;2023-05-07T00:57:50;17.27;75.33
71304;DHT22;59091;47.446;19.148;2023-05-07T01:00:16;17.26;75.39
71304;DHT22;59091;47.446;19.148;2023-05-07T01:02:42;17.20;75.39
71304;DHT22;59091;47.446;19.148;2023-05-07T01:05:09;17.19;75.19
71304;DHT22;59091;47.446;19.148;2023-05-07T01:07:37;17.14;75.33
71304;DHT22;59091;47.446;19.148;2023-05-07T01:10:04;17.09;75.18
71304;DHT22;59091;47.446;19.148;2023-05-07T01:12:30;17.04;75.12
71304;DHT22;59091;47.446;19.148;2023-05-07T01:14:57;16.99;75.21
71304;DHT22;59091;47.446;19.148;2023-05-07T01:17:23;17.01;75.34
71304;DHT22;59091;47.446;19.148;2023-05-07T01:19:48;16.95;75.40
71304;DHT22;59091;47.446;19.148;2023-05-07T01:22:16;16.96;75.32
71304;DHT22;59091;47.446;19.148;2023-05-07T01:24:42;16.94;75.57
71304;DHT22;59091;47.446;19.148;2023-05-07T01:27:07;16.89;75.61
71304;DHT22;59091;47.446;19.148;2023-05-07T01:29:33;16.86;75.66
71304;DHT22;59091;47.446;19.148;2023-05-07T01:32:00;16.85;75.47
71304;DHT22;59091;47.446;19.148;2023-05-07T01:34:28;16.86;75.28
71304;DHT22;59091;47.446;19.148;2023-05-07T01:36:55;16.85;75.45
71304;DHT22;59091;47.446;19.148;2023-05-07T01:39:25;16.84;75.38
71304;DHT22;59091;47.446;19.148;2023-05-07T01:41:51;16.78;75.60
71304;DHT22;59091;47.446;19.148;2023-05-07T01:44:17;16.78;75.49
71304;DHT22;59091;47.446;19.148;2023-05-07T01:46:43;16.75;75.59
71304;DHT22;59091;47.446;19.148;2023-05-07T01:49:09;16.75;75.42
71304;DHT22;59091;47.446;19.148;2023-05-07T01:51:35;16.72;75.49
71304;DHT22;59091;47.446;19.148;2023-05-07T01:54:00;16.71;75.72
71304;DHT22;59091;47.446;19.148;2023-05-07T01:56:26;16.64;76.01
71304;DHT22;59091;47.446;19.148;2023-05-07T01:58:52;16.55;76.70
71304;DHT22;59091;47.446;19.148;2023-05-07T02:01:17;16.58;76.28
71304;DHT22;59091;47.446;19.148;2023-05-07T02:03:43;16.57;76.17
71304;DHT22;59091;47.446;19.148;2023-05-07T02:06:09;16.54;76.06
71304;DHT22;59091;47.446;19.148;2023-05-07T02:08:35;16.50;75.97
71304;DHT22;59091;47.446;19.148;2023-05-07T02:11:01;16.44;75.85
71304;DHT22;59091;47.446;19.148;2023-05-07T02:13:29;16.43;75.59
71304;DHT22;59091;47.446;19.148;2023-05-07T02:15:55;16.40;75.61
71304;DHT22;59091;47.446;19.148;2023-05-07T02:18:20;16.38;75.74
71304;DHT22;59091;47.446;19.148;2023-05-07T02:20:45;16.31;75.65
71304;DHT22;59091;47.446;19.148;2023-05-07T02:23:11;16.25;75.66
71304;DHT22;59091;47.446;19.148;2023-05-07T02:25:37;16.20;75.52
71304;DHT22;59091;47.446;19.148;2023-05-07T02:28:03;16.17;75.33
71304;DHT22;59091;47.446;19.148;2023-05-07T02:30:28;16.14;75.25
71304;DHT22;59091;47.446;19.148;2023-05-07T02:32:54;16.09;75.19
71304;DHT22;59091;47.446;19.148;2023-05-07T02:35:19;16.10;75.28
71304;DHT22;59091;47.446;19.148;2023-05-07T02:37:44;16.06;75.48
71304;DHT22;59091;47.446;19.148;2023-05-07T02:40:10;16.03;75.52
71304;DHT22;59091;47.446;19.148;2023-05-07T02:42:37;15.97;75.47
71304;DHT22;59091;47.446;19.148;2023-05-07T02:45:03;15.93;75.54
71304;DHT22;59091;47.446;19.148;2023-05-07T02:47:29;15.89;75.34
71304;DHT22;59091;47.446;19.148;2023-05-07T02:49:55;15.86;75.21
71304;DHT22;59091;47.446;19.148;2023-05-07T02:52:21;15.82;75.35
71304;DHT22;59091;47.446;19.148;2023-05-07T02:54:47;15.79;75.15
71304;DHT22;59091;47.446;19.148;2023-05-07T02:57:12;15.76;75.31
71304;DHT22;59091;47.446;19.148;2023-05-07T02:59:37;15.70;75.44
71304;DHT22;59091;47.446;19.148;2023-05-07T03:02:03;15.67;75.37
71304;DHT22;59091;47.446;19.148;2023-05-07T03:04:28;15.62;75.65
71304;DHT22;59091;47.446;19.148;2023-05-07T03:06:54;15.61;75.66
71304;DHT22;59091;47.446;19.148;2023-05-07T03:09:19;15.58;75.54
71304;DHT22;59091;47.446;19.148;2023-05-07T03:11:45;15.53;75.77
71304;DHT22;59091;47.446;19.148;2023-05-07T03:14:11;15.53;75.95
71304;DHT22;59091;47.446;19.148;2023-05-07T03:16:36;15.53;75.83
71304;DHT22;59091;47.446;19.148;2023-05-07T03:19:01;15.52;75.75
71304;DHT22;59091;47.446;19.148;2023-05-07T03:21:27;15.53;75.91
71304;DHT22;59091;47.446;19.148;2023-05-07T03:23:53;15.51;76.62
71304;DHT22;59091;47.446;19.148;2023-05-07T03:26:18;15.55;76.61
71304;DHT22;59091;47.446;19.148;2023-05-07T03:28:43;15.58;76.51
71304;DHT22;59091;47.446;19.148;2023-05-07T03:31:09;15.61;76.61
71304;DHT22;59091;47.446;19.148;2023-05-07T03:33:35;15.59;77.12
71304;DHT22;59091;47.446;19.148;2023-05-07T03:36:01;15.65;77.33
71304;DHT22;59091;47.446;19.148;2023-05-07T03:38:26;15.72;77.42
71304;DHT22;59091;47.446;19.148;2023-05-07T03:40:51;15.72;77.76
71304;DHT22;59091;47.446;19.148;2023-05-07T03:43:17;15.78;77.67
71304;DHT22;59091;47.446;19.148;2023-05-07T03:45:42;15.79;77.79
71304;DHT22;59091;47.446;19.148;2023-05-07T03:48:08;15.82;77.71
71304;DHT22;59091;47.446;19.148;2023-05-07T03:50:33;15.86;77.59
71304;DHT22;59091;47.446;19.148;2023-05-07T03:52:59;15.90;77.56
71304;DHT22;59091;47.446;19.148;2023-05-07T03:55:24;15.92;77.60
71304;DHT22;59091;47.446;19.148;2023-05-07T03:57:50;15.85;78.11
71304;DHT22;59091;47.446;19.148;2023-05-07T04:00:16;15.89;77.94
71304;DHT22;59091;47.446;19.148;2023-05-07T04:02:41;15.99;77.63
71304;DHT22;59091;47.446;19.148;2023-05-07T04:05:07;16.04;77.71
71304;DHT22;59091;47.446;19.148;2023-05-07T04:07:33;16.04;77.57
71304;DHT22;59091;47.446;19.148;2023-05-07T04:09:58;16.13;77.27
71304;DHT22;59091;47.446;19.148;2023-05-07T04:12:23;16.16;77.00
71304;DHT22;59091;47.446;19.148;2023-05-07T04:14:49;16.18;77.05
71304;DHT22;59091;47.446;19.148;2023-05-07T04:17:15;16.23;77.02
71304;DHT22;59091;47.446;19.148;2023-05-07T04:19:40;16.25;76.97
71304;DHT22;59091;47.446;19.148;2023-05-07T04:22:10;16.28;76.91
71304;DHT22;59091;47.446;19.148;2023-05-07T04:24:35;16.33;76.73
71304;DHT22;59091;47.446;19.148;2023-05-07T04:27:01;16.38;76.51
71304;DHT22;59091;47.446;19.148;2023-05-07T04:29:26;16.37;76.46
71304;DHT22;59091;47.446;19.148;2023-05-07T04:31:52;16.41;76.42
71304;DHT22;59091;47.446;19.148;2023-05-07T04:34:18;16.43;76.30
71304;DHT22;59091;47.446;19.148;2023-05-07T04:36:43;16.47;76.19
71304;DHT22;59091;47.446;19.148;2023-05-07T04:39:08;16.50;76.08
71304;DHT22;59091;47.446;19.148;2023-05-07T04:41:36;16.57;75.96
71304;DHT22;59091;47.446;19.148;2023-05-07T04:44:01;16.61;75.89
71304;DHT22;59091;47.446;19.148;2023-05-07T04:46:30;16.76;75.73
71304;DHT22;59091;47.446;19.148;2023-05-07T04:48:55;16.88;75.34
71304;DHT22;59091;47.446;19.148;2023-05-07T04:51:21;16.92;75.06
71304;DHT22;59091;47.446;19.148;2023-05-07T04:53:46;17.09;74.72
71304;DHT22;59091;47.446;19.148;2023-05-07T04:56:12;17.22;74.59
71304;DHT22;59091;47.446;19.148;2023-05-07T04:58:37;17.32;74.13
71304;DHT22;59091;47.446;19.148;2023-05-07T05:01:03;17.49;73.65
71304;DHT22;59091;47.446;19.148;2023-05-07T05:03:28;17.47;73.40
71304;DHT22;59091;47.446;19.148;2023-05-07T05:05:55;17.62;72.94
71304;DHT22;59091;47.446;19.148;2023-05-07T05:08:20;17.87;72.24
71304;DHT22;59091;47.446;19.148;2023-05-07T05:10:46;17.98;72.10
71304;DHT22;59091;47.446;19.148;2023-05-07T05:13:13;18.04;71.10
71304;DHT22;59091;47.446;19.148;2023-05-07T05:15:39;18.17;70.56
71304;DHT22;59091;47.446;19.148;2023-05-07T05:18:04;18.35;69.93
71304;DHT22;59091;47.446;19.148;2023-05-07T05:20:30;18.35;69.65
71304;DHT22;59091;47.446;19.148;2023-05-07T05:22:56;18.18;69.36
71304;DHT22;59091;47.446;19.148;2023-05-07T05:25:21;18.45;69.02
71304;DHT22;59091;47.446;19.148;2023-05-07T05:27:46;18.55;68.59
71304;DHT22;59091;47.446;19.148;2023-05-07T05:30:12;18.55;68.57
71304;DHT22;59091;47.446;19.148;2023-05-07T05:32:38;18.55;68.42
71304;DHT22;59091;47.446;19.148;2023-05-07T05:35:03;18.45;68.51
71304;DHT22;59091;47.446;19.148;2023-05-07T05:37:29;18.28;68.98
71304;DHT22;59091;47.446;19.148;2023-05-07T05:39:56;18.49;68.50
71304;DHT22;59091;47.446;19.148;2023-05-07T05:42:21;18.44;68.64
71304;DHT22;59091;47.446;19.148;2023-05-07T05:44:47;18.68;68.24
71304;DHT22;59091;47.446;19.148;2023-05-07T05:47:13;18.65;68.35
71304;DHT22;59091;47.446;19.148;2023-05-07T05:49:39;18.80;67.92
71304;DHT22;59091;47.446;19.148;2023-05-07T05:52:04;18.92;67.85
71304;DHT22;59091;47.446;19.148;2023-05-07T05:54:29;19.02;66.94
71304;DHT22;59091;47.446;19.148;2023-05-07T05:56:55;19.07;66.82
71304;DHT22;59091;47.446;19.148;2023-05-07T05:59:21;19.26;66.54
71304;DHT22;59091;47.446;19.148;2023-05-07T06:01:46;19.44;67.26
71304;DHT22;59091;47.446;19.148;2023-05-07T06:04:12;19.46;65.51
71304;DHT22;59091;47.446;19.148;2023-05-07T06:06:37;19.61;67.89
71304;DHT22;59091;47.446;19.148;2023-05-07T06:09:02;19.75;66.65
71304;DHT22;59091;47.446;19.148;2023-05-07T06:11:28;19.98;67.21
71304;DHT22;59091;47.446;19.148;2023-05-07T06:13:53;20.10;66.35
71304;DHT22;59091;47.446;19.148;2023-05-07T06:16:19;20.28;65.33
71304;DHT22;59091;47.446;19.148;2023-05-07T06:18:44;20.54;64.73
71304;DHT22;59091;47.446;19.148;2023-05-07T06:21:13;20.85;63.87
71304;DHT22;59091;47.446;19.148;2023-05-07T06:23:38;21.20;63.45
71304;DHT22;59091;47.446;19.148;2023-05-07T06:26:06;21.39;62.20
71304;DHT22;59091;47.446;19.148;2023-05-07T06:28:31;21.66;61.29
71304;DHT22;59091;47.446;19.148;2023-05-07T06:31:17;21.90;60.37
71304;DHT22;59091;47.446;19.148;2023-05-07T06:33:44;22.06;59.41
71304;DHT22;59091;47.446;19.148;2023-05-07T06:36:09;22.03;58.42
71304;DHT22;59091;47.446;19.148;2023-05-07T06:38:35;22.20;58.21
71304;DHT22;59091;47.446;19.148;2023-05-07T06:41:01;22.41;56.91
71304;DHT22;59091;47.446;19.148;2023-05-07T06:43:26;22.74;55.94
71304;DHT22;59091;47.446;19.148;2023-05-07T06:45:52;22.98;55.78
71304;DHT22;59091;47.446;19.148;2023-05-07T06:48:17;23.06;55.34
71304;DHT22;59091;47.446;19.148;2023-05-07T06:50:42;23.01;54.15
71304;DHT22;59091;47.446;19.148;2023-05-07T06:53:08;23.11;54.25
71304;DHT22;59091;47.446;19.148;2023-05-07T06:55:33;23.39;53.84
71304;DHT22;59091;47.446;19.148;2023-05-07T06:57:59;23.50;52.42
71304;DHT22;59091;47.446;19.148;2023-05-07T07:00:26;23.43;51.62
71304;DHT22;59091;47.446;19.148;2023-05-07T07:02:53;23.50;52.26
71304;DHT22;59091;47.446;19.148;2023-05-07T07:05:18;23.73;50.51
71304;DHT22;59091;47.446;19.148;2023-05-07T07:07:44;23.90;50.33
71304;DHT22;59091;47.446;19.148;2023-05-07T07:10:09;23.81;50.59
71304;DHT22;59091;47.446;19.148;2023-05-07T07:12:35;24.05;50.31
71304;DHT22;59091;47.446;19.148;2023-05-07T07:15:00;24.47;49.38
71304;DHT22;59091;47.446;19.148;2023-05-07T07:17:26;24.21;50.11
71304;DHT22;59091;47.446;19.148;2023-05-07T07:19:51;24.31;49.56
71304;DHT22;59091;47.446;19.148;2023-05-07T07:22:17;24.13;49.22
71304;DHT22;59091;47.446;19.148;2023-05-07T07:24:42;24.24;49.95
71304;DHT22;59091;47.446;19.148;2023-05-07T07:27:08;24.52;48.95
71304;DHT22;59091;47.446;19.148;2023-05-07T07:29:33;24.66;47.18
71304;DHT22;59091;47.446;19.148;2023-05-07T07:31:58;24.73;46.18
71304;DHT22;59091;47.446;19.148;2023-05-07T07:34:24;24.80;46.97
71304;DHT22;59091;47.446;19.148;2023-05-07T07:36:49;24.59;45.31
71304;DHT22;59091;47.446;19.148;2023-05-07T07:39:15;24.75;46.04
71304;DHT22;59091;47.446;19.148;2023-05-07T07:41:40;25.00;46.01
71304;DHT22;59091;47.446;19.148;2023-05-07T07:44:06;25.40;45.78
71304;DHT22;59091;47.446;19.148;2023-05-07T07:46:33;25.60;45.48
71304;DHT22;59091;47.446;19.148;2023-05-07T07:48:58;25.95;43.74
71304;DHT22;59091;47.446;19.148;2023-05-07T07:51:25;25.94;43.79
71304;DHT22;59091;47.446;19.148;2023-05-07T07:53:50;25.94;43.67
71304;DHT22;59091;47.446;19.148;2023-05-07T07:56:15;25.95;44.20
71304;DHT22;59091;47.446;19.148;2023-05-07T07:58:41;25.99;44.88
71304;DHT22;59091;47.446;19.148;2023-05-07T08:01:07;26.15;44.46
71304;DHT22;59091;47.446;19.148;2023-05-07T08:03:32;26.01;43.48
71304;DHT22;59091;47.446;19.148;2023-05-07T08:05:58;25.73;43.20
71304;DHT22;59091;47.446;19.148;2023-05-07T08:08:23;25.86;45.06
71304;DHT22;59091;47.446;19.148;2023-05-07T08:10:49;25.80;44.00
71304;DHT22;59091;47.446;19.148;2023-05-07T08:13:16;25.43;45.26
71304;DHT22;59091;47.446;19.148;2023-05-07T08:15:41;25.04;45.65
71304;DHT22;59091;47.446;19.148;2023-05-07T08:18:06;25.20;47.23
71304;DHT22;59091;47.446;19.148;2023-05-07T08:20:32;25.34;47.40
71304;DHT22;59091;47.446;19.148;2023-05-07T08:22:58;25.19;45.61
71304;DHT22;59091;47.446;19.148;2023-05-07T08:25:24;25.22;44.77
71304;DHT22;59091;47.446;19.148;2023-05-07T08:27:49;24.93;44.27
71304;DHT22;59091;47.446;19.148;2023-05-07T08:30:15;25.03;47.71
71304;DHT22;59091;47.446;19.148;2023-05-07T08:32:41;24.99;46.12
71304;DHT22;59091;47.446;19.148;2023-05-07T08:35:06;24.89;48.49
71304;DHT22;59091;47.446;19.148;2023-05-07T08:37:32;24.59;47.20
71304;DHT22;59091;47.446;19.148;2023-05-07T08:39:57;24.56;48.89
71304;DHT22;59091;47.446;19.148;2023-05-07T08:42:23;24.63;48.91
71304;DHT22;59091;47.446;19.148;2023-05-07T08:44:51;24.54;48.46
71304;DHT22;59091;47.446;19.148;2023-05-07T08:47:18;24.73;48.42
71304;DHT22;59091;47.446;19.148;2023-05-07T08:49:44;24.66;49.79
71304;DHT22;59091;47.446;19.148;2023-05-07T08:52:12;24.63;46.83
71304;DHT22;59091;47.446;19.148;2023-05-07T08:54:38;24.72;49.15
71304;DHT22;59091;47.446;19.148;2023-05-07T08:57:04;25.00;47.22
71304;DHT22;59091;47.446;19.148;2023-05-07T08:59:29;25.09;47.90
71304;DHT22;59091;47.446;19.148;2023-05-07T09:01:55;25.00;47.33
71304;DHT22;59091;47.446;19.148;2023-05-07T09:04:21;24.80;45.97
71304;DHT22;59091;47.446;19.148;2023-05-07T09:06:46;24.80;46.20
71304;DHT22;59091;47.446;19.148;2023-05-07T09:09:17;24.95;46.99
71304;DHT22;59091;47.446;19.148;2023-05-07T09:11:45;24.90;46.94
71304;DHT22;59091;47.446;19.148;2023-05-07T09:14:11;25.13;46.63
71304;DHT22;59091;47.446;19.148;2023-05-07T09:16:36;25.19;47.13
71304;DHT22;59091;47.446;19.148;2023-05-07T09:19:02;25.47;46.40
71304;DHT22;59091;47.446;19.148;2023-05-07T09:21:27;25.44;46.62
71304;DHT22;59091;47.446;19.148;2023-05-07T09:23:55;25.50;46.08
71304;DHT22;59091;47.446;19.148;2023-05-07T09:26:22;25.54;46.70
71304;DHT22;59091;47.446;19.148;2023-05-07T09:28:47;25.61;47.50
71304;DHT22;59091;47.446;19.148;2023-05-07T09:31:13;25.67;46.46
71304;DHT22;59091;47.446;19.148;2023-05-07T09:33:39;25.88;44.88
71304;DHT22;59091;47.446;19.148;2023-05-07T09:36:06;25.98;44.02
71304;DHT22;59091;47.446;19.148;2023-05-07T09:38:33;25.74;45.02
71304;DHT22;59091;47.446;19.148;2023-05-07T09:41:09;26.21;44.52
71304;DHT22;59091;47.446;19.148;2023-05-07T09:43:37;26.19;44.89
71304;DHT22;59091;47.446;19.148;2023-05-07T09:46:12;26.04;44.29
71304;DHT22;59091;47.446;19.148;2023-05-07T09:48:40;26.25;46.34
71304;DHT22;59091;47.446;19.148;2023-05-07T09:51:29;26.18;45.81
71304;DHT22;59091;47.446;19.148;2023-05-07T09:53:57;26.09;45.42
71304;DHT22;59091;47.446;19.148;2023-05-07T09:56:23;25.70;45.17
71304;DHT22;59091;47.446;19.148;2023-05-07T09:58:49;25.70;44.25
71304;DHT22;59091;47.446;19.148;2023-05-07T10:01:17;25.61;44.90
71304;DHT22;59091;47.446;19.148;2023-05-07T10:03:44;25.51;44.61
71304;DHT22;59091;47.446;19.148;2023-05-07T10:06:12;25.51;44.51
71304;DHT22;59091;47.446;19.148;2023-05-07T10:08:38;25.57;44.28
71304;DHT22;59091;47.446;19.148;2023-05-07T10:11:05;25.71;45.43
71304;DHT22;59091;47.446;19.148;2023-05-07T10:13:33;25.91;44.03
71304;DHT22;59091;47.446;19.148;2023-05-07T10:16:03;25.70;44.50
71304;DHT22;59091;47.446;19.148;2023-05-07T10:18:31;25.33;45.44
71304;DHT22;59091;47.446;19.148;2023-05-07T10:21:04;25.60;45.09
71304;DHT22;59091;47.446;19.148;2023-05-07T10:23:31;24.99;44.83
71304;DHT22;59091;47.446;19.148;2023-05-07T10:25:58;24.69;45.34
71304;DHT22;59091;47.446;19.148;2023-05-07T10:28:24;24.25;46.71
71304;DHT22;59091;47.446;19.148;2023-05-07T10:33:56;24.03;47.66
71304;DHT22;59091;47.446;19.148;2023-05-07T10:36:23;23.84;48.49
71304;DHT22;59091;47.446;19.148;2023-05-07T10:38:49;24.04;49.23
71304;DHT22;59091;47.446;19.148;2023-05-07T10:41:15;23.73;50.35
71304;DHT22;59091;47.446;19.148;2023-05-07T10:43:43;23.91;50.74
71304;DHT22;59091;47.446;19.148;2023-05-07T10:46:20;23.66;50.64
71304;DHT22;59091;47.446;19.148;2023-05-07T10:49:12;23.70;50.98
71304;DHT22;59091;47.446;19.148;2023-05-07T10:51:38;24.03;50.69
71304;DHT22;59091;47.446;19.148;2023-05-07T10:56:37;24.22;50.44
71304;DHT22;59091;47.446;19.148;2023-05-07T10:59:37;24.42;49.08
71304;DHT22;59091;47.446;19.148;2023-05-07T11:02:07;24.73;47.85
71304;DHT22;59091;47.446;19.148;2023-05-07T11:04:34;24.95;47.20
71304;DHT22;59091;47.446;19.148;2023-05-07T11:15:09;25.50;46.32
71304;DHT22;59091;47.446;19.148;2023-05-07T11:17:55;25.60;45.50
71304;DHT22;59091;47.446;19.148;2023-05-07T11:20:20;25.60;45.26
71304;DHT22;59091;47.446;19.148;2023-05-07T11:22:47;25.92;44.78
71304;DHT22;59091;47.446;19.148;2023-05-07T11:25:17;26.24;46.10
71304;DHT22;59091;47.446;19.148;2023-05-07T11:27:44;26.40;44.08
71304;DHT22;59091;47.446;19.148;2023-05-07T11:30:16;26.45;42.93
71304;DHT22;59091;47.446;19.148;2023-05-07T11:32:43;26.53;43.76
71304;DHT22;59091;47.446;19.148;2023-05-07T11:35:08;26.43;43.07
71304;DHT22;59091;47.446;19.148;2023-05-07T11:37:34;26.33;42.46
71304;DHT22;59091;47.446;19.148;2023-05-07T11:40:07;26.67;42.52
71304;DHT22;59091;47.446;19.148;2023-05-07T11:42:34;26.56;42.01
71304;DHT22;59091;47.446;19.148;2023-05-07T11:45:01;26.63;41.70
71304;DHT22;59091;47.446;19.148;2023-05-07T11:47:29;26.91;41.65
71304;DHT22;59091;47.446;19.148;2023-05-07T11:49:55;27.00;41.74
71304;DHT22;59091;47.446;19.148;2023-05-07T11:52:22;27.12;42.55
71304;DHT22;59091;47.446;19.148;2023-05-07T11:54:49;26.77;41.76
71304;DHT22;59091;47.446;19.148;2023-05-07T11:57:15;26.46;41.61
71304;DHT22;59091;47.446;19.148;2023-05-07T11:59:40;26.45;41.16
71304;DHT22;59091;47.446;19.148;2023-05-07T12:02:06;26.53;41.32
71304;DHT22;59091;47.446;19.148;2023-05-07T12:04:32;26.96;41.57
71304;DHT22;59091;47.446;19.148;2023-05-07T12:06:58;26.94;39.93
71304;DHT22;59091;47.446;19.148;2023-05-07T12:09:23;26.93;40.46
71304;DHT22;59091;47.446;19.148;2023-05-07T12:11:49;27.18;39.52
71304;DHT22;59091;47.446;19.148;2023-05-07T12:14:16;27.01;40.57
71304;DHT22;59091;47.446;19.148;2023-05-07T12:16:42;26.66;39.63
71304;DHT22;59091;47.446;19.148;2023-05-07T12:19:08;26.26;40.69
71304;DHT22;59091;47.446;19.148;2023-05-07T12:21:37;26.28;40.93
71304;DHT22;59091;47.446;19.148;2023-05-07T12:24:03;25.96;39.62
71304;DHT22;59091;47.446;19.148;2023-05-07T12:26:29;25.98;41.60
71304;DHT22;59091;47.446;19.148;2023-05-07T12:28:54;26.08;41.60
71304;DHT22;59091;47.446;19.148;2023-05-07T12:31:20;26.02;41.30
71304;DHT22;59091;47.446;19.148;2023-05-07T12:33:45;26.08;42.35
71304;DHT22;59091;47.446;19.148;2023-05-07T12:36:13;25.99;41.04
71304;DHT22;59091;47.446;19.148;2023-05-07T12:38:38;26.29;40.73
71304;DHT22;59091;47.446;19.148;2023-05-07T12:41:10;26.43;39.78
71304;DHT22;59091;47.446;19.148;2023-05-07T12:43:37;26.49;39.08
71304;DHT22;59091;47.446;19.148;2023-05-07T12:46:07;26.69;39.10
71304;DHT22;59091;47.446;19.148;2023-05-07T12:48:33;26.87;38.41
71304;DHT22;59091;47.446;19.148;2023-05-07T12:51:01;26.67;38.35
71304;DHT22;59091;47.446;19.148;2023-05-07T12:53:28;26.66;38.88
71304;DHT22;59091;47.446;19.148;2023-05-07T12:55:55;26.39;38.95
71304;DHT22;59091;47.446;19.148;2023-05-07T12:58:33;26.16;37.80
71304;DHT22;59091;47.446;19.148;2023-05-07T13:01:04;26.25;38.41
71304;DHT22;59091;47.446;19.148;2023-05-07T13:03:33;26.33;38.38
71304;DHT22;59091;47.446;19.148;2023-05-07T13:06:05;26.15;37.88
71304;DHT22;59091;47.446;19.148;2023-05-07T13:08:39;26.16;39.32
71304;DHT22;59091;47.446;19.148;2023-05-07T13:11:11;26.06;39.79
71304;DHT22;59091;47.446;19.148;2023-05-07T13:13:38;25.99;39.30
71304;DHT22;59091;47.446;19.148;2023-05-07T13:16:05;26.04;39.31
71304;DHT22;59091;47.446;19.148;2023-05-07T13:18:32;25.99;39.89
71304;DHT22;59091;47.446;19.148;2023-05-07T13:20:58;25.94;39.18
71304;DHT22;59091;47.446;19.148;2023-05-07T13:23:24;25.47;38.76
71304;DHT22;59091;47.446;19.148;2023-05-07T13:25:50;25.67;38.44
71304;DHT22;59091;47.446;19.148;2023-05-07T13:28:15;25.24;38.72
71304;DHT22;59091;47.446;19.148;2023-05-07T13:30:41;25.47;39.04
71304;DHT22;59091;47.446;19.148;2023-05-07T13:33:07;25.41;39.13
71304;DHT22;59091;47.446;19.148;2023-05-07T13:35:33;25.31;38.91
71304;DHT22;59091;47.446;19.148;2023-05-07T13:37:59;25.20;39.99
71304;DHT22;59091;47.446;19.148;2023-05-07T13:40:24;25.04;39.75
71304;DHT22;59091;47.446;19.148;2023-05-07T13:42:50;25.00;40.29
71304;DHT22;59091;47.446;19.148;2023-05-07T13:45:19;25.16;40.54
71304;DHT22;59091;47.446;19.148;2023-05-07T13:47:45;25.09;40.93
71304;DHT22;59091;47.446;19.148;2023-05-07T13:50:11;25.12;41.55
71304;DHT22;59091;47.446;19.148;2023-05-07T13:52:40;24.93;40.94
71304;DHT22;59091;47.446;19.148;2023-05-07T13:55:06;25.00;40.41
71304;DHT22;59091;47.446;19.148;2023-05-07T13:57:32;25.22;40.05
71304;DHT22;59091;47.446;19.148;2023-05-07T13:59:57;25.54;39.13
71304;DHT22;59091;47.446;19.148;2023-05-07T14:02:23;25.48;38.33
71304;DHT22;59091;47.446;19.148;2023-05-07T14:04:48;25.57;38.32
71304;DHT22;59091;47.446;19.148;2023-05-07T14:07:14;25.60;37.88
71304;DHT22;59091;47.446;19.148;2023-05-07T14:09:40;25.41;38.32
71304;DHT22;59091;47.446;19.148;2023-05-07T14:12:05;25.48;39.32
71304;DHT22;59091;47.446;19.148;2023-05-07T14:14:31;25.28;38.37
71304;DHT22;59091;47.446;19.148;2023-05-07T14:16:57;25.06;38.31
71304;DHT22;59091;47.446;19.148;2023-05-07T14:19:22;25.27;38.38
71304;DHT22;59091;47.446;19.148;2023-05-07T14:21:48;25.31;38.73
71304;DHT22;59091;47.446;19.148;2023-05-07T14:24:13;25.45;39.31
71304;DHT22;59091;47.446;19.148;2023-05-07T14:26:39;25.47;38.89
71304;DHT22;59091;47.446;19.148;2023-05-07T14:29:04;25.40;38.33
71304;DHT22;59091;47.446;19.148;2023-05-07T14:31:30;25.09;38.57
71304;DHT22;59091;47.446;19.148;2023-05-07T14:33:56;25.23;38.52
71304;DHT22;59091;47.446;19.148;2023-05-07T14:36:23;25.34;39.23
71304;DHT22;59091;47.446;19.148;2023-05-07T14:38:51;25.73;39.19
71304;DHT22;59091;47.446;19.148;2023-05-07T14:41:17;25.38;38.07
71304;DHT22;59091;47.446;19.148;2023-05-07T14:43:43;25.41;37.75
71304;DHT22;59091;47.446;19.148;2023-05-07T14:46:15;25.23;38.55
71304;DHT22;59091;47.446;19.148;2023-05-07T14:48:40;25.20;38.86
71304;DHT22;59091;47.446;19.148;2023-05-07T14:51:06;25.17;38.42
71304;DHT22;59091;47.446;19.148;2023-05-07T14:53:31;25.03;38.72
71304;DHT22;59091;47.446;19.148;2023-05-07T14:55:57;25.00;38.66
71304;DHT22;59091;47.446;19.148;2023-05-07T14:58:22;24.96;38.88
71304;DHT22;59091;47.446;19.148;2023-05-07T15:00:48;24.79;39.00
71304;DHT22;59091;47.446;19.148;2023-05-07T15:03:13;24.89;39.31
71304;DHT22;59091;47.446;19.148;2023-05-07T15:05:39;24.89;39.48
71304;DHT22;59091;47.446;19.148;2023-05-07T15:08:04;24.75;39.96
71304;DHT22;59091;47.446;19.148;2023-05-07T15:10:30;24.82;40.16
71304;DHT22;59091;47.446;19.148;2023-05-07T15:12:55;24.68;40.48
71304;DHT22;59091;47.446;19.148;2023-05-07T15:15:21;24.85;39.37
71304;DHT22;59091;47.446;19.148;2023-05-07T15:17:46;24.85;39.82
71304;DHT22;59091;47.446;19.148;2023-05-07T15:20:12;24.59;39.41
71304;DHT22;59091;47.446;19.148;2023-05-07T15:22:37;24.61;39.49
71304;DHT22;59091;47.446;19.148;2023-05-07T15:25:04;24.63;40.72